Time;durP1;ratioP1;P1;durP2;ratioP2;P2;SDS_P1;SDS_P2;PMS_P1;PMS_P2;Temp;Humidity;BMP_temperature;BMP_pressure;BME280_temperature;BME280_humidity;BME280_pressure;Samples;Min_cycle;Max_cycle;Signal;HPM_P1;HPM_P2
2023/05/11 00:02:17;;;;;;;14.88;10.73;;;14.30;99.90;;;;;;5012138;28;20751;-82
2023/05/11 00:04:43;;;;;;;15.15;10.48;;;14.20;99.90;;;;;;5015804;28;20033;-82
2023/05/11 00:07:08;;;;;;;15.45;9.98;;;14.20;99.90;;;;;;5015852;28;20057;-82
2023/05/11 00:09:34;;;;;;;15.60;11.05;;;14.20;99.90;;;;;;5013352;28;20036;-82
2023/05/11 00:12:01;;;;;;;13.75;9.90;;;14.20;99.90;;;;;;5014823;28;20060;-82
2023/05/11 00:14:27;;;;;;;14.20;10.60;;;14.20;99.90;;;;;;5013516;28;20033;-81
2023/05/11 00:16:53;;;;;;;13.57;10.00;;;14.30;99.90;;;;;;5014957;28;20038;-83
2023/05/11 00:19:18;;;;;;;13.68;10.10;;;14.20;99.90;;;;;;5015499;28;20387;-82
2023/05/11 00:21:44;;;;;;;13.80;10.02;;;14.20;99.90;;;;;;5013643;28;20090;-82
2023/05/11 00:24:10;;;;;;;12.90;9.80;;;14.20;99.90;;;;;;5017790;28;20166;-81
2023/05/11 00:26:36;;;;;;;14.38;10.73;;;14.20;99.90;;;;;;5015736;28;20048;-82
2023/05/11 00:29:01;;;;;;;13.00;9.68;;;14.20;99.90;;;;;;5016343;28;20060;-82
2023/05/11 00:31:27;;;;;;;15.70;10.48;;;14.20;99.90;;;;;;5029502;28;20041;-82
2023/05/11 00:33:55;;;;;;;13.43;10.07;;;14.20;99.90;;;;;;5017089;28;20107;-84
2023/05/11 00:36:21;;;;;;;13.38;10.20;;;14.20;99.90;;;;;;5014407;28;20061;-83
2023/05/11 00:38:46;;;;;;;14.43;10.90;;;14.20;99.90;;;;;;5015463;28;20108;-82
2023/05/11 00:41:12;;;;;;;15.15;11.15;;;14.10;99.90;;;;;;5013959;28;20157;-81
2023/05/11 00:43:37;;;;;;;12.63;9.45;;;14.10;99.90;;;;;;5012439;28;20026;-82
2023/05/11 00:46:03;;;;;;;12.20;8.93;;;14.00;99.90;;;;;;5013635;28;20033;-82
2023/05/11 00:48:29;;;;;;;14.70;10.00;;;14.00;99.90;;;;;;5014448;28;20026;-82
2023/05/11 00:50:55;;;;;;;14.60;9.55;;;14.00;99.90;;;;;;5011724;28;20396;-83
2023/05/11 00:53:20;;;;;;;12.30;9.23;;;14.00;99.90;;;;;;5012818;28;20041;-82
2023/05/11 00:55:46;;;;;;;14.00;10.50;;;14.00;99.90;;;;;;5013024;28;20536;-82
2023/05/11 00:58:12;;;;;;;14.25;9.73;;;14.00;99.90;;;;;;5012530;28;20145;-81
2023/05/11 01:00:37;;;;;;;12.80;9.02;;;13.90;99.90;;;;;;5013428;28;20075;-82
2023/05/11 01:03:06;;;;;;;13.13;9.35;;;13.90;99.90;;;;;;5017147;28;20034;-81
2023/05/11 01:05:47;;;;;;;13.70;8.90;;;13.90;99.90;;;;;;5011599;28;20026;-82
2023/05/11 01:08:30;;;;;;;13.95;8.75;;;14.00;99.90;;;;;;5012683;28;20701;-81
2023/05/11 01:11:01;;;;;;;;;;;14.00;99.90;;;;;;5012285;28;20112;-83
2023/05/11 01:13:38;;;;;;;11.60;7.65;;;13.90;99.90;;;;;;5013619;28;19949;-82
2023/05/11 01:16:17;;;;;;;11.15;8.05;;;13.90;99.90;;;;;;5014070;28;20056;-81
2023/05/11 01:19:11;;;;;;;13.82;8.70;;;14.00;99.90;;;;;;5012099;28;20072;-82
2023/05/11 01:21:38;;;;;;;12.02;8.65;;;14.00;99.90;;;;;;5011723;28;21412;-83
2023/05/11 01:24:16;;;;;;;11.63;8.70;;;14.00;99.90;;;;;;5013267;28;20121;-82
2023/05/11 01:27:10;;;;;;;14.50;9.73;;;14.00;99.90;;;;;;5016743;28;20048;-81
2023/05/11 01:30:12;;;;;;;14.63;10.32;;;14.00;99.90;;;;;;5014607;28;20025;-82
2023/05/11 01:32:41;;;;;;;15.95;11.90;;;14.00;99.90;;;;;;5012675;28;20365;-82
2023/05/11 01:35:13;;;;;;;14.90;11.57;;;14.00;99.90;;;;;;5014194;28;20025;-82
2023/05/11 01:37:43;;;;;;;15.40;11.90;;;14.00;99.90;;;;;;5012695;28;20038;-82
2023/05/11 01:40:15;;;;;;;13.77;10.82;;;14.00;99.90;;;;;;5013444;28;20026;-82
2023/05/11 01:42:46;;;;;;;16.38;12.52;;;13.90;99.90;;;;;;5014102;28;20056;-82
2023/05/11 01:45:13;;;;;;;17.45;11.75;;;13.90;99.90;;;;;;5018568;28;20513;-82
2023/05/11 01:47:40;;;;;;;13.77;10.68;;;13.90;99.90;;;;;;5011745;28;20021;-82
2023/05/11 01:50:07;;;;;;;15.38;11.60;;;13.80;99.90;;;;;;5012870;28;20042;-82
2023/05/11 01:52:36;;;;;;;15.75;11.60;;;13.80;99.90;;;;;;5013202;28;20018;-82
2023/05/11 01:55:04;;;;;;;16.65;12.65;;;13.80;99.90;;;;;;5013332;28;20144;-82
2023/05/11 01:57:31;;;;;;;14.98;10.90;;;13.80;99.90;;;;;;5014159;28;20033;-82
2023/05/11 01:59:58;;;;;;;15.55;10.98;;;13.80;99.90;;;;;;5015339;28;20537;-81
2023/05/11 02:02:25;;;;;;;15.27;10.77;;;13.90;99.90;;;;;;5012892;28;20021;-82
2023/05/11 02:04:52;;;;;;;15.63;10.73;;;13.90;99.90;;;;;;5012935;28;20033;-82
2023/05/11 02:07:19;;;;;;;15.27;10.40;;;13.90;99.90;;;;;;5013399;28;20036;-81
2023/05/11 02:09:47;;;;;;;16.35;10.80;;;13.90;99.90;;;;;;5011075;28;20017;-82
2023/05/11 02:12:14;;;;;;;14.77;10.77;;;13.90;99.90;;;;;;5013635;28;20069;-82
2023/05/11 02:14:41;;;;;;;15.32;10.38;;;14.00;99.90;;;;;;5014102;28;20104;-82
2023/05/11 02:17:09;;;;;;;17.52;11.00;;;14.00;99.90;;;;;;5012530;28;20058;-82
2023/05/11 02:19:38;;;;;;;16.45;10.70;;;14.00;99.90;;;;;;5011524;28;20033;-81
2023/05/11 02:22:04;;;;;;;15.02;10.25;;;14.00;99.90;;;;;;5013484;28;20596;-81
2023/05/11 02:24:32;;;;;;;14.10;10.77;;;14.00;99.90;;;;;;5012910;28;20033;-82
2023/05/11 02:26:58;;;;;;;17.42;11.40;;;14.00;99.90;;;;;;5017348;28;20033;-80
2023/05/11 02:29:24;;;;;;;18.02;11.57;;;14.00;99.90;;;;;;5017215;28;20060;-82
2023/05/11 02:31:55;;;;;;;17.73;11.52;;;14.00;99.90;;;;;;5017856;28;20079;-82
2023/05/11 02:34:26;;;;;;;16.38;11.63;;;14.00;99.90;;;;;;5015356;28;20044;-82
2023/05/11 02:37:09;;;;;;;19.73;12.73;;;14.00;99.90;;;;;;5017247;28;20038;-82
2023/05/11 02:39:35;;;;;;;20.05;12.88;;;14.00;99.90;;;;;;5015362;28;20022;-82
2023/05/11 02:42:10;;;;;;;18.80;11.68;;;13.90;99.90;;;;;;5016801;28;20056;-83
2023/05/11 02:44:37;;;;;;;18.58;11.68;;;13.90;99.90;;;;;;5017726;28;20392;-82
2023/05/11 02:47:06;;;;;;;19.58;12.07;;;13.80;99.90;;;;;;5018370;28;20037;-80
2023/05/11 02:49:34;;;;;;;16.25;10.50;;;13.80;99.90;;;;;;5015365;28;20029;-81
2023/05/11 02:52:02;;;;;;;19.20;11.43;;;13.80;99.90;;;;;;5015733;28;20034;-81
2023/05/11 02:54:30;;;;;;;18.73;11.43;;;13.80;99.90;;;;;;5016294;28;20030;-82
2023/05/11 02:56:56;;;;;;;17.95;11.23;;;13.80;99.90;;;;;;5016395;28;20034;-82
2023/05/11 02:59:23;;;;;;;18.00;11.15;;;13.80;99.90;;;;;;5015930;28;20032;-81
2023/05/11 03:01:49;;;;;;;19.15;11.75;;;13.80;99.90;;;;;;5017651;28;20033;-82
2023/05/11 03:04:15;;;;;;;17.38;10.55;;;13.80;99.90;;;;;;5014406;28;20109;-82
2023/05/11 03:06:41;;;;;;;15.68;9.82;;;13.70;99.90;;;;;;5016416;28;20582;-81
2023/05/11 03:09:06;;;;;;;17.20;10.43;;;13.70;99.90;;;;;;5016162;28;20080;-82
2023/05/11 03:11:32;;;;;;;18.08;11.02;;;13.70;99.90;;;;;;5015283;28;20056;-81
2023/05/11 03:14:00;;;;;;;20.63;11.77;;;13.70;99.90;;;;;;5016076;28;20688;-82
2023/05/11 03:16:26;;;;;;;20.88;11.50;;;13.70;99.90;;;;;;5017091;28;20345;-81
2023/05/11 03:18:54;;;;;;;18.52;12.13;;;13.70;99.90;;;;;;5015337;28;20025;-82
2023/05/11 03:21:21;;;;;;;19.20;12.43;;;13.70;99.90;;;;;;5014854;28;20112;-82
2023/05/11 03:23:48;;;;;;;21.35;13.00;;;13.60;99.90;;;;;;5015283;28;20471;-82
2023/05/11 03:26:16;;;;;;;21.25;14.15;;;13.60;99.90;;;;;;5014784;28;20026;-80
2023/05/11 03:28:43;;;;;;;22.17;13.57;;;13.60;99.90;;;;;;5016740;28;20037;-82
2023/05/11 03:31:09;;;;;;;19.50;12.07;;;13.60;99.90;;;;;;5016862;28;20109;-83
2023/05/11 03:33:35;;;;;;;22.42;13.40;;;13.60;99.90;;;;;;5015140;28;20167;-82
2023/05/11 03:36:03;;;;;;;20.27;12.73;;;13.60;99.90;;;;;;5014320;28;20041;-82
2023/05/11 03:38:29;;;;;;;19.13;12.40;;;13.60;99.90;;;;;;5015808;28;20026;-82
2023/05/11 03:40:57;;;;;;;20.85;13.20;;;13.60;99.90;;;;;;5015848;28;20406;-81
2023/05/11 03:43:27;;;;;;;20.52;13.07;;;13.60;99.90;;;;;;5014726;28;20316;-82
2023/05/11 03:45:54;;;;;;;23.23;13.23;;;13.60;99.90;;;;;;5015125;28;20022;-82
2023/05/11 03:48:20;;;;;;;20.13;13.02;;;13.50;99.90;;;;;;5014191;28;20467;-85
2023/05/11 03:50:47;;;;;;;20.65;12.70;;;13.50;99.90;;;;;;5011961;28;20043;-83
2023/05/11 03:53:14;;;;;;;21.90;13.98;;;13.50;99.90;;;;;;5012911;28;20081;-82
2023/05/11 03:55:40;;;;;;;19.15;11.43;;;13.40;99.90;;;;;;5012824;28;20034;-81
2023/05/11 03:58:07;;;;;;;17.13;11.40;;;13.50;99.90;;;;;;5013503;28;20158;-82
2023/05/11 04:00:36;;;;;;;18.98;11.75;;;13.50;99.90;;;;;;5013902;28;20406;-80
2023/05/11 04:03:04;;;;;;;18.55;11.80;;;13.50;99.90;;;;;;5014191;28;20026;-82
2023/05/11 04:05:30;;;;;;;18.70;11.23;;;13.50;99.90;;;;;;5012580;28;20034;-84
2023/05/11 04:07:56;;;;;;;18.23;11.27;;;13.50;99.90;;;;;;5013896;28;20029;-82
2023/05/11 04:10:21;;;;;;;17.73;10.70;;;13.50;99.90;;;;;;5013905;28;20068;-82
2023/05/11 04:12:47;;;;;;;17.67;11.10;;;13.50;99.90;;;;;;5016102;28;20041;-81
2023/05/11 04:15:12;;;;;;;18.95;10.95;;;13.50;99.90;;;;;;5016907;28;20063;-82
2023/05/11 04:17:38;;;;;;;20.85;11.10;;;13.60;99.90;;;;;;5014963;28;20073;-83
2023/05/11 04:20:04;;;;;;;19.00;10.88;;;13.60;99.90;;;;;;5014152;28;20029;-83
2023/05/11 04:22:29;;;;;;;18.23;11.10;;;13.60;99.90;;;;;;5013491;28;20040;-83
2023/05/11 04:24:55;;;;;;;21.67;12.93;;;13.60;99.90;;;;;;5013607;28;20425;-82
2023/05/11 04:27:20;;;;;;;18.80;11.02;;;13.60;99.90;;;;;;5012737;28;20915;-82
2023/05/11 04:29:47;;;;;;;21.45;12.30;;;13.60;99.90;;;;;;5014457;28;20475;-82
2023/05/11 04:32:14;;;;;;;21.48;12.80;;;13.70;99.90;;;;;;5013525;28;20022;-83
2023/05/11 04:34:40;;;;;;;22.70;12.90;;;13.70;99.90;;;;;;5012657;28;20034;-81
2023/05/11 04:37:06;;;;;;;22.60;12.70;;;13.70;99.90;;;;;;5011786;28;20483;-82
2023/05/11 04:39:32;;;;;;;21.95;14.45;;;13.70;99.90;;;;;;5011726;28;20097;-82
2023/05/11 04:41:59;;;;;;;22.02;13.20;;;13.70;99.90;;;;;;5012564;28;20803;-82
2023/05/11 04:44:25;;;;;;;23.50;14.73;;;13.70;99.90;;;;;;5011570;28;20030;-83
2023/05/11 04:46:54;;;;;;;23.73;14.27;;;13.70;99.90;;;;;;5012557;28;20040;-82
2023/05/11 04:49:20;;;;;;;23.52;14.27;;;13.60;99.90;;;;;;5011484;28;20041;-83
2023/05/11 04:51:46;;;;;;;24.73;13.80;;;13.60;99.90;;;;;;5011397;28;20037;-83
2023/05/11 04:54:11;;;;;;;24.52;13.93;;;13.60;99.90;;;;;;5011943;28;20029;-82
2023/05/11 04:56:39;;;;;;;20.98;13.68;;;13.60;99.90;;;;;;5010657;28;20044;-82
2023/05/11 04:59:05;;;;;;;20.92;12.55;;;13.60;99.90;;;;;;5013082;28;22370;-82
2023/05/11 05:01:31;;;;;;;24.00;13.75;;;13.70;99.90;;;;;;5012677;28;20155;-81
2023/05/11 05:03:57;;;;;;;21.85;13.35;;;13.70;99.90;;;;;;5011363;28;20467;-83
2023/05/11 05:06:22;;;;;;;23.77;13.80;;;13.70;99.90;;;;;;5011843;28;20049;-82
2023/05/11 05:08:48;;;;;;;25.58;13.70;;;13.70;99.90;;;;;;5013027;28;21977;-83
2023/05/11 05:11:13;;;;;;;24.38;14.10;;;13.70;99.90;;;;;;5011160;28;20365;-82
2023/05/11 05:13:39;;;;;;;26.85;15.05;;;13.70;99.90;;;;;;5012298;28;20125;-83
2023/05/11 05:16:05;;;;;;;24.80;14.57;;;13.70;99.90;;;;;;5011583;28;20032;-84
2023/05/11 05:18:30;;;;;;;21.85;12.65;;;13.70;99.90;;;;;;5011513;28;20901;-82
2023/05/11 05:20:56;;;;;;;27.17;14.70;;;13.70;99.90;;;;;;5012969;28;20032;-82
2023/05/11 05:23:21;;;;;;;23.33;13.07;;;13.60;99.90;;;;;;5013243;28;20044;-83
2023/05/11 05:25:47;;;;;;;24.77;13.98;;;13.70;99.90;;;;;;5012963;28;20021;-83
2023/05/11 05:28:12;;;;;;;23.88;14.13;;;13.70;99.90;;;;;;5012739;28;20034;-83
2023/05/11 05:30:38;;;;;;;23.67;13.02;;;13.70;99.90;;;;;;5014267;28;20667;-83
2023/05/11 05:33:04;;;;;;;25.42;14.48;;;13.70;99.90;;;;;;5014129;28;20037;-83
2023/05/11 05:35:29;;;;;;;20.65;12.07;;;13.70;99.90;;;;;;5012553;28;20018;-84
2023/05/11 05:37:55;;;;;;;21.33;12.30;;;13.70;99.90;;;;;;5013508;28;20038;-82
2023/05/11 05:40:20;;;;;;;24.83;13.18;;;13.80;99.90;;;;;;5013700;28;20073;-82
2023/05/11 05:42:46;;;;;;;23.55;13.63;;;13.80;99.90;;;;;;5013725;28;20112;-82
2023/05/11 05:45:12;;;;;;;24.25;13.82;;;13.80;99.90;;;;;;5014808;28;20439;-83
2023/05/11 05:47:38;;;;;;;27.55;15.50;;;13.90;99.90;;;;;;5015099;28;20021;-83
2023/05/11 05:50:05;;;;;;;26.48;15.07;;;13.90;99.90;;;;;;5013963;28;20048;-83
2023/05/11 05:52:31;;;;;;;27.73;15.82;;;14.00;99.90;;;;;;5012846;28;20038;-83
2023/05/11 05:54:56;;;;;;;29.63;16.40;;;14.00;99.90;;;;;;5012761;28;20070;-84
2023/05/11 05:57:22;;;;;;;26.92;15.40;;;14.00;99.90;;;;;;5013690;28;20046;-83
2023/05/11 05:59:47;;;;;;;23.02;14.57;;;14.10;99.90;;;;;;5015875;28;20056;-83
2023/05/11 06:02:13;;;;;;;23.73;14.30;;;14.10;99.90;;;;;;5019277;28;20033;-83
2023/05/11 06:04:40;;;;;;;22.40;14.05;;;14.20;99.90;;;;;;5017347;28;20026;-83
2023/05/11 06:07:06;;;;;;;24.10;14.27;;;14.20;99.90;;;;;;5017353;28;20022;-83
2023/05/11 06:09:32;;;;;;;22.55;13.68;;;14.30;99.90;;;;;;5016627;28;20557;-82
2023/05/11 06:11:57;;;;;;;22.17;13.85;;;14.30;99.90;;;;;;5017811;28;20038;-83
2023/05/11 06:14:23;;;;;;;18.60;12.20;;;14.40;99.90;;;;;;5017728;28;20033;-82
2023/05/11 06:16:49;;;;;;;19.23;12.95;;;14.40;99.90;;;;;;5016750;28;20866;-82
2023/05/11 06:19:15;;;;;;;18.65;12.30;;;14.50;99.90;;;;;;5018389;28;20400;-83
2023/05/11 06:21:42;;;;;;;19.70;12.10;;;14.60;99.90;;;;;;5015939;28;20048;-82
2023/05/11 06:24:08;;;;;;;19.83;12.48;;;14.60;99.90;;;;;;5016181;28;20021;-83
2023/05/11 06:26:33;;;;;;;19.77;12.63;;;14.80;99.90;;;;;;5016590;28;20033;-82
2023/05/11 06:28:59;;;;;;;18.25;12.23;;;14.90;99.90;;;;;;5016579;28;20033;-83
2023/05/11 06:31:24;;;;;;;19.42;11.50;;;15.00;99.90;;;;;;5017039;28;20033;-83
2023/05/11 06:33:50;;;;;;;18.60;11.20;;;15.20;99.90;;;;;;5018648;28;20604;-83
2023/05/11 06:36:16;;;;;;;21.98;12.30;;;15.40;99.90;;;;;;5014627;28;20081;-84
2023/05/11 06:38:41;;;;;;;17.80;12.05;;;15.50;99.90;;;;;;5015051;28;20049;-83
2023/05/11 06:41:10;;;;;;;18.63;12.20;;;15.60;99.90;;;;;;5017298;28;20040;-83
2023/05/11 06:43:36;;;;;;;19.50;12.52;;;15.60;99.90;;;;;;5016549;28;20022;-83
2023/05/11 06:46:02;;;;;;;20.92;13.57;;;15.70;99.90;;;;;;5016646;28;20034;-83
2023/05/11 06:48:28;;;;;;;19.95;13.82;;;15.90;99.90;;;;;;5021378;28;20107;-82
2023/05/11 06:50:54;;;;;;;19.52;13.00;;;15.90;99.90;;;;;;5016518;28;20161;-83
2023/05/11 06:53:20;;;;;;;22.10;15.82;;;15.90;99.90;;;;;;5015934;28;20274;-83
2023/05/11 06:55:46;;;;;;;24.20;16.38;;;15.70;99.90;;;;;;5016855;28;20052;-83
2023/05/11 06:58:12;;;;;;;23.73;15.93;;;15.60;99.90;;;;;;5016973;28;20059;-82
2023/05/11 07:00:37;;;;;;;24.77;17.02;;;15.50;99.90;;;;;;5016912;28;20029;-83
2023/05/11 07:03:03;;;;;;;22.67;15.43;;;15.50;99.90;;;;;;5017834;28;20033;-83
2023/05/11 07:05:30;;;;;;;23.80;16.30;;;15.40;99.90;;;;;;5016696;28;20034;-82
2023/05/11 07:07:55;;;;;;;23.65;15.80;;;15.40;99.90;;;;;;5015898;28;20080;-83
2023/05/11 07:10:21;;;;;;;20.77;15.10;;;15.50;99.90;;;;;;5016433;28;20486;-86
2023/05/11 07:12:46;;;;;;;21.02;14.20;;;15.60;99.90;;;;;;5014521;28;20045;-83
2023/05/11 07:15:12;;;;;;;21.23;15.60;;;15.70;99.90;;;;;;5016957;28;20111;-86
2023/05/11 07:17:38;;;;;;;17.35;12.88;;;15.70;99.90;;;;;;5017316;28;20068;-85
2023/05/11 07:20:04;;;;;;;17.63;13.20;;;15.70;99.90;;;;;;5015685;28;20874;-87
2023/05/11 07:22:29;;;;;;;20.15;14.48;;;15.80;99.90;;;;;;5015326;28;20033;-85
2023/05/11 07:24:55;;;;;;;20.20;14.90;;;15.80;99.90;;;;;;5015459;28;20920;-83
2023/05/11 07:27:20;;;;;;;19.02;14.77;;;15.80;99.90;;;;;;5015520;28;20034;-83
2023/05/11 07:29:46;;;;;;;20.30;15.00;;;15.80;99.90;;;;;;5015165;28;20056;-84
2023/05/11 07:32:12;;;;;;;20.27;15.13;;;15.90;99.90;;;;;;5016542;28;20040;-83
2023/05/11 07:34:38;;;;;;;21.38;15.38;;;16.00;99.90;;;;;;5016458;28;20212;-82
2023/05/11 07:37:03;;;;;;;25.05;18.02;;;16.10;99.90;;;;;;5015350;28;20120;-82
2023/05/11 07:39:29;;;;;;;24.23;18.30;;;16.10;99.90;;;;;;5014852;28;20441;-82
2023/05/11 07:41:54;;;;;;;25.25;17.40;;;16.10;99.90;;;;;;5016602;28;20045;-83
2023/05/11 07:44:20;;;;;;;25.65;17.90;;;16.10;99.90;;;;;;5016084;28;20033;-84
2023/05/11 07:46:45;;;;;;;24.23;17.45;;;16.10;99.90;;;;;;5016572;28;20068;-83
2023/05/11 07:49:11;;;;;;;24.20;16.85;;;16.10;99.90;;;;;;5017256;28;20504;-84
2023/05/11 07:51:36;;;;;;;23.98;17.40;;;16.10;99.90;;;;;;5014856;28;20503;-84
2023/05/11 07:54:02;;;;;;;22.63;17.13;;;16.20;99.90;;;;;;5015020;28;20034;-83
2023/05/11 07:56:28;;;;;;;23.63;18.33;;;16.30;99.90;;;;;;5016420;28;20046;-82
2023/05/11 07:58:53;;;;;;;24.65;17.65;;;16.40;99.90;;;;;;5015439;28;20025;-83
2023/05/11 08:01:19;;;;;;;24.70;18.60;;;16.40;99.90;;;;;;5015754;28;20090;-83
2023/05/11 08:03:44;;;;;;;20.08;15.68;;;16.40;99.90;;;;;;5017079;28;20531;-84
2023/05/11 08:06:11;;;;;;;21.17;16.70;;;16.60;99.90;;;;;;5015718;28;20060;-84
2023/05/11 08:08:36;;;;;;;22.58;17.15;;;16.80;99.90;;;;;;5013561;28;20045;-84
2023/05/11 08:11:03;;;;;;;19.85;15.90;;;16.90;99.90;;;;;;5012977;28;20407;-85
2023/05/11 08:13:28;;;;;;;20.85;16.13;;;17.00;99.90;;;;;;5028954;28;20099;-84
2023/05/11 08:15:54;;;;;;;21.83;16.42;;;17.00;99.90;;;;;;5015266;28;20480;-84
2023/05/11 08:18:19;;;;;;;22.05;17.02;;;16.90;99.90;;;;;;5015570;28;20483;-85
2023/05/11 08:20:45;;;;;;;20.13;15.52;;;16.90;99.90;;;;;;5016874;28;20056;-84
2023/05/11 08:23:15;;;;;;;21.65;16.73;;;16.90;99.90;;;;;;5012560;28;20092;-85
2023/05/11 08:25:47;;;;;;;21.60;16.63;;;17.00;99.90;;;;;;5014469;28;20499;-84
2023/05/11 08:28:13;;;;;;;20.33;15.32;;;17.00;99.90;;;;;;5014849;28;20442;-84
2023/05/11 08:30:38;;;;;;;22.27;15.57;;;17.10;99.90;;;;;;5013996;28;20026;-85
2023/05/11 08:33:04;;;;;;;21.08;15.45;;;17.20;99.90;;;;;;5019733;28;20101;-84
2023/05/11 08:35:29;;;;;;;21.58;15.70;;;17.40;99.90;;;;;;5016021;28;20026;-85
2023/05/11 08:37:55;;;;;;;20.45;15.10;;;17.40;99.90;;;;;;5014147;28;20041;-86
2023/05/11 08:40:22;;;;;;;20.02;15.73;;;17.50;99.90;;;;;;5013053;28;20022;-84
2023/05/11 08:42:52;;;;;;;18.63;14.50;;;17.60;99.90;;;;;;5015612;28;20033;-85
2023/05/11 08:45:18;;;;;;;21.20;15.82;;;17.80;99.90;;;;;;5013929;28;20071;-84
2023/05/11 08:47:45;;;;;;;22.38;17.52;;;17.90;99.90;;;;;;5014926;28;20033;-84
2023/05/11 08:50:10;;;;;;;27.17;21.08;;;17.90;99.90;;;;;;5016270;28;20026;-84
2023/05/11 08:52:36;;;;;;;20.42;17.48;;;17.80;99.90;;;;;;5013885;28;20048;-84
2023/05/11 08:55:02;;;;;;;20.08;17.20;;;17.80;99.90;;;;;;5014425;28;20018;-84
2023/05/11 08:57:31;;;;;;;19.58;15.70;;;17.80;99.90;;;;;;5013702;28;20475;-85
2023/05/11 08:59:57;;;;;;;19.70;15.38;;;17.90;99.90;;;;;;5013816;28;20013;-84
2023/05/11 09:02:24;;;;;;;18.70;14.75;;;17.90;99.90;;;;;;5013608;28;20029;-83
2023/05/11 09:04:50;;;;;;;21.13;17.75;;;18.10;99.90;;;;;;5014420;28;20028;-84
2023/05/11 09:07:17;;;;;;;19.58;15.80;;;18.30;99.90;;;;;;5014904;28;20479;-84
2023/05/11 09:09:44;;;;;;;20.23;15.32;;;18.40;99.90;;;;;;5013694;28;20064;-84
2023/05/11 09:12:10;;;;;;;17.88;15.57;;;18.60;99.90;;;;;;5014146;28;20057;-85
2023/05/11 09:14:36;;;;;;;18.40;15.82;;;18.70;99.90;;;;;;5028556;28;20075;-85
2023/05/11 09:17:03;;;;;;;18.10;14.95;;;18.60;99.90;;;;;;5029315;28;20042;-84
2023/05/11 09:19:29;;;;;;;19.08;15.35;;;18.50;99.90;;;;;;5014919;28;20080;-86
2023/05/11 09:21:54;;;;;;;16.27;13.95;;;18.40;99.90;;;;;;5015120;28;20021;-84
2023/05/11 09:24:20;;;;;;;13.68;11.68;;;18.40;99.90;;;;;;5013743;28;20080;-85
2023/05/11 09:26:46;;;;;;;15.50;12.48;;;18.50;99.90;;;;;;5013902;28;20052;-84
2023/05/11 09:29:12;;;;;;;12.38;10.75;;;18.80;99.90;;;;;;5017749;28;20068;-85
2023/05/11 09:31:43;;;;;;;14.50;12.23;;;19.10;99.90;;;;;;5014370;28;20022;-84
2023/05/11 09:34:11;;;;;;;12.90;11.02;;;19.40;99.90;;;;;;5016946;28;20034;-85
2023/05/11 09:36:37;;;;;;;12.20;10.52;;;19.40;99.90;;;;;;5019787;28;20160;-85
2023/05/11 09:39:03;;;;;;;12.27;10.85;;;19.30;99.90;;;;;;5015374;28;20493;-85
2023/05/11 09:41:30;;;;;;;11.70;9.73;;;19.30;99.90;;;;;;5018087;28;20030;-85
2023/05/11 09:44:09;;;;;;;13.80;11.23;;;19.10;99.90;;;;;;5018812;28;20037;-85
2023/05/11 09:46:36;;;;;;;15.02;12.63;;;18.90;99.90;;;;;;5017906;28;20564;-85
2023/05/11 09:49:02;;;;;;;17.70;14.30;;;18.80;99.90;;;;;;5017893;28;20029;-84
2023/05/11 09:51:33;;;;;;;16.23;13.55;;;18.50;99.90;;;;;;5018821;28;20041;-84
2023/05/11 09:54:00;;;;;;;16.33;13.35;;;18.20;99.90;;;;;;5018852;28;20022;-84
2023/05/11 09:56:47;;;;;;;16.65;14.40;;;18.00;99.90;;;;;;5017059;28;20064;-83
2023/05/11 09:59:37;;;;;;;17.45;15.15;;;17.80;99.90;;;;;;5017493;28;20475;-85
2023/05/11 10:02:33;;;;;;;20.08;16.05;;;17.60;99.90;;;;;;5017778;28;20029;-84
2023/05/11 10:05:00;;;;;;;17.50;15.15;;;17.30;99.90;;;;;;5018277;28;20029;-84
2023/05/11 10:07:30;;;;;;;18.15;14.60;;;17.20;99.90;;;;;;5018173;28;20034;-84
2023/05/11 10:09:57;;;;;;;20.17;16.80;;;17.10;99.90;;;;;;5017365;28;20045;-84
2023/05/11 10:12:25;;;;;;;19.08;16.00;;;17.00;99.90;;;;;;5016999;28;22443;-84
2023/05/11 10:14:57;;;;;;;18.67;15.77;;;16.90;99.90;;;;;;5018571;28;20057;-84
2023/05/11 10:17:24;;;;;;;17.42;14.10;;;16.80;99.90;;;;;;5016779;28;20048;-84
2023/05/11 10:19:53;;;;;;;18.75;15.65;;;16.70;99.90;;;;;;5017160;28;20029;-82
2023/05/11 10:22:19;;;;;;;22.08;17.60;;;16.60;99.90;;;;;;5019253;28;20033;-84
2023/05/11 10:24:45;;;;;;;20.83;16.67;;;16.50;99.90;;;;;;5016277;28;20014;-84
2023/05/11 10:27:12;;;;;;;21.77;16.60;;;16.30;99.90;;;;;;5017139;28;20037;-83
2023/05/11 10:29:38;;;;;;;19.92;16.13;;;16.10;99.90;;;;;;5017215;28;20033;-83
2023/05/11 10:32:05;;;;;;;21.90;16.33;;;16.00;99.90;;;;;;5016957;28;20487;-83
2023/05/11 10:34:32;;;;;;;21.25;17.13;;;15.90;99.90;;;;;;5015886;28;20030;-82
2023/05/11 10:37:00;;;;;;;23.08;17.25;;;15.80;99.90;;;;;;5018483;28;20064;-83
2023/05/11 10:39:30;;;;;;;21.23;16.55;;;15.80;99.90;;;;;;5016628;28;20052;-83
2023/05/11 10:42:05;;;;;;;20.77;16.48;;;15.70;99.90;;;;;;5016048;28;20052;-83
2023/05/11 10:44:31;;;;;;;21.42;16.45;;;15.70;99.90;;;;;;5015687;28;20797;-82
2023/05/11 10:47:07;;;;;;;20.50;16.33;;;15.60;99.90;;;;;;5016550;28;20045;-83
2023/05/11 10:49:43;;;;;;;19.75;16.05;;;15.60;99.90;;;;;;5015833;28;20032;-84
2023/05/11 10:52:30;;;;;;;22.45;18.73;;;15.60;99.90;;;;;;5017774;28;20039;-82
2023/05/11 10:55:08;;;;;;;23.42;18.80;;;15.40;99.90;;;;;;5017277;28;20057;-82
2023/05/11 10:58:27;;;;;;;22.83;17.52;;;15.30;99.90;;;;;;5017066;28;20942;-83
2023/05/11 11:01:14;;;;;;;24.75;18.67;;;15.30;99.90;;;;;;4955939;28;20030;-83
2023/05/11 11:03:39;;;;;;;24.77;19.10;;;15.20;99.90;;;;;;4955372;28;20073;-83
2023/05/11 11:06:20;;;;;;;23.10;17.60;;;15.10;99.90;;;;;;4989773;28;20120;-84
2023/05/11 11:08:59;;;;;;;20.70;16.13;;;15.10;99.90;;;;;;5015059;28;20025;-83
2023/05/11 11:11:35;;;;;;;19.02;14.50;;;15.00;99.90;;;;;;5016988;28;20085;-83
2023/05/11 11:14:04;;;;;;;19.27;13.63;;;14.90;99.90;;;;;;5017202;28;20042;-83
2023/05/11 11:16:31;;;;;;;15.23;12.38;;;14.80;99.90;;;;;;5017558;28;20042;-83
2023/05/11 11:19:27;;;;;;;15.25;11.82;;;14.80;99.90;;;;;;5018084;28;20029;-83
2023/05/11 11:21:52;;;;;;;19.13;14.25;;;14.80;99.90;;;;;;5016861;28;20471;-83
2023/05/11 11:24:45;;;;;;;18.48;14.95;;;14.70;99.90;;;;;;5016934;28;20025;-82
2023/05/11 11:27:11;;;;;;;24.55;18.48;;;14.70;99.90;;;;;;5014159;28;20116;-83
2023/05/11 11:29:38;;;;;;;22.52;18.10;;;14.70;99.90;;;;;;5015908;28;20732;-83
2023/05/11 11:32:23;;;;;;;23.02;17.98;;;14.60;99.90;;;;;;5017320;28;20029;-83
2023/05/11 11:34:49;;;;;;;20.05;16.63;;;14.60;99.90;;;;;;5019913;28;20609;-83
2023/05/11 11:37:16;;;;;;;31.20;22.60;;;14.60;99.90;;;;;;5015900;28;20080;-84
2023/05/11 11:39:41;;;;;;;24.40;18.52;;;14.50;99.90;;;;;;5012127;28;20478;-83
2023/05/11 11:42:29;;;;;;;23.45;18.13;;;14.50;99.90;;;;;;5014891;28;20032;-84
2023/05/11 11:45:27;;;;;;;23.48;16.55;;;14.50;99.90;;;;;;5016644;28;20049;-84
2023/05/11 11:48:13;;;;;;;18.25;13.68;;;14.40;99.90;;;;;;5014365;28;20615;-84
2023/05/11 11:50:41;;;;;;;15.63;11.90;;;14.40;99.90;;;;;;5014923;28;20068;-83
2023/05/11 11:53:10;;;;;;;16.63;12.73;;;14.40;99.90;;;;;;5015188;28;22263;-84
2023/05/11 11:55:45;;;;;;;14.88;11.05;;;14.40;99.90;;;;;;5014265;28;20588;-83
2023/05/11 11:58:11;;;;;;;11.55;9.40;;;14.20;99.90;;;;;;5015534;28;20060;-82
2023/05/11 12:00:37;;;;;;;13.52;9.48;;;14.10;99.90;;;;;;5014681;28;20488;-82
2023/05/11 12:03:03;;;;;;;13.18;9.23;;;14.10;99.90;;;;;;5022535;28;20049;-83
2023/05/11 12:05:30;;;;;;;13.15;9.60;;;14.20;99.90;;;;;;5014969;28;20041;-83
2023/05/11 12:08:04;;;;;;;13.10;9.38;;;14.30;99.90;;;;;;5014149;28;20026;-83
2023/05/11 12:10:30;;;;;;;10.93;9.00;;;14.50;99.90;;;;;;5014372;28;20044;-82
2023/05/11 12:12:56;;;;;;;10.95;8.68;;;14.70;99.90;;;;;;5015234;28;20032;-83
2023/05/11 12:15:26;;;;;;;14.32;10.40;;;14.80;99.90;;;;;;5015169;28;20056;-83
2023/05/11 12:17:53;;;;;;;14.95;10.75;;;14.90;99.90;;;;;;5014839;28;20456;-82
2023/05/11 12:20:19;;;;;;;12.25;9.93;;;14.90;99.90;;;;;;5014498;28;20029;-83
2023/05/11 12:22:47;;;;;;;12.30;9.40;;;14.90;99.90;;;;;;5014569;28;20018;-82
2023/05/11 12:25:17;;;;;;;15.30;10.68;;;14.90;99.90;;;;;;5015020;28;20025;-83
2023/05/11 12:28:01;;;;;;;14.15;11.00;;;15.00;99.90;;;;;;5015757;28;20041;-82
2023/05/11 12:30:33;;;;;;;12.85;10.45;;;14.90;99.90;;;;;;5014710;28;20037;-83
2023/05/11 12:33:00;;;;;;;11.60;8.97;;;15.00;99.90;;;;;;5014270;28;20064;-83
2023/05/11 12:35:31;;;;;;;12.95;9.73;;;15.10;99.90;;;;;;5013467;28;20284;-83